sensor_id;sensor_type;location;lat;lon;timestamp;P1;durP1;ratioP1;P2;durP2;ratioP2
52029;SDS011;38043;53.224;6.580;2023-03-01T00:01:12;31.02;;;17.10;;
52029;SDS011;38043;53.224;6.580;2023-03-01T00:03:40;30.73;;;17.42;;
52029;SDS011;38043;53.224;6.580;2023-03-01T00:06:06;35.47;;;17.42;;
52029;SDS011;38043;53.224;6.580;2023-03-01T00:08:32;33.40;;;18.25;;
52029;SDS011;38043;53.224;6.580;2023-03-01T00:13:45;32.70;;;18.23;;
52029;SDS011;38043;53.224;6.580;2023-03-01T00:16:14;28.58;;;17.20;;
52029;SDS011;38043;53.224;6.580;2023-03-01T00:18:42;37.67;;;18.40;;
52029;SDS011;38043;53.224;6.580;2023-03-01T00:21:08;32.90;;;18.48;;
52029;SDS011;38043;53.224;6.580;2023-03-01T00:23:34;35.00;;;18.73;;
52029;SDS011;38043;53.224;6.580;2023-03-01T00:26:00;45.80;;;22.25;;
52029;SDS011;38043;53.224;6.580;2023-03-01T00:28:26;37.85;;;21.50;;
52029;SDS011;38043;53.224;6.580;2023-03-01T00:30:52;37.92;;;20.77;;
52029;SDS011;38043;53.224;6.580;2023-03-01T00:33:17;34.40;;;18.48;;
52029;SDS011;38043;53.224;6.580;2023-03-01T00:35:43;35.03;;;18.35;;
52029;SDS011;38043;53.224;6.580;2023-03-01T00:38:09;33.85;;;18.13;;
52029;SDS011;38043;53.224;6.580;2023-03-01T00:40:35;35.03;;;18.40;;
52029;SDS011;38043;53.224;6.580;2023-03-01T00:43:01;43.85;;;20.63;;
52029;SDS011;38043;53.224;6.580;2023-03-01T00:45:28;39.35;;;20.25;;
52029;SDS011;38043;53.224;6.580;2023-03-01T00:47:55;37.42;;;20.33;;
52029;SDS011;38043;53.224;6.580;2023-03-01T00:50:21;45.55;;;22.33;;
52029;SDS011;38043;53.224;6.580;2023-03-01T00:52:51;40.80;;;21.02;;
52029;SDS011;38043;53.224;6.580;2023-03-01T00:55:20;46.55;;;22.15;;
52029;SDS011;38043;53.224;6.580;2023-03-01T00:57:46;40.05;;;21.25;;
52029;SDS011;38043;53.224;6.580;2023-03-01T01:00:12;45.33;;;23.23;;
52029;SDS011;38043;53.224;6.580;2023-03-01T01:02:38;48.35;;;24.27;;
52029;SDS011;38043;53.224;6.580;2023-03-01T01:05:04;46.45;;;24.80;;
52029;SDS011;38043;53.224;6.580;2023-03-01T01:07:30;47.22;;;22.23;;
52029;SDS011;38043;53.224;6.580;2023-03-01T01:09:55;47.20;;;23.63;;
52029;SDS011;38043;53.224;6.580;2023-03-01T01:12:21;40.05;;;21.60;;
52029;SDS011;38043;53.224;6.580;2023-03-01T01:14:47;41.60;;;21.77;;
52029;SDS011;38043;53.224;6.580;2023-03-01T01:17:12;39.22;;;20.20;;
52029;SDS011;38043;53.224;6.580;2023-03-01T01:19:38;46.35;;;22.98;;
52029;SDS011;38043;53.224;6.580;2023-03-01T01:22:04;51.42;;;24.40;;
52029;SDS011;38043;53.224;6.580;2023-03-01T01:24:29;41.00;;;20.70;;
52029;SDS011;38043;53.224;6.580;2023-03-01T01:26:55;44.83;;;23.17;;
52029;SDS011;38043;53.224;6.580;2023-03-01T01:29:21;49.97;;;24.95;;
52029;SDS011;38043;53.224;6.580;2023-03-01T01:31:47;47.72;;;23.40;;
52029;SDS011;38043;53.224;6.580;2023-03-01T01:34:16;44.40;;;23.02;;
52029;SDS011;38043;53.224;6.580;2023-03-01T01:36:47;55.20;;;21.90;;
52029;SDS011;38043;53.224;6.580;2023-03-01T01:39:14;40.50;;;20.77;;
52029;SDS011;38043;53.224;6.580;2023-03-01T01:41:40;41.97;;;20.45;;
52029;SDS011;38043;53.224;6.580;2023-03-01T01:44:11;42.83;;;22.52;;
52029;SDS011;38043;53.224;6.580;2023-03-01T01:46:39;50.35;;;24.77;;
52029;SDS011;38043;53.224;6.580;2023-03-01T01:49:12;47.75;;;24.73;;
52029;SDS011;38043;53.224;6.580;2023-03-01T01:51:49;53.28;;;24.65;;
52029;SDS011;38043;53.224;6.580;2023-03-01T01:54:19;50.13;;;25.20;;
52029;SDS011;38043;53.224;6.580;2023-03-01T01:56:52;45.50;;;23.08;;
52029;SDS011;38043;53.224;6.580;2023-03-01T01:59:22;47.97;;;23.98;;
52029;SDS011;38043;53.224;6.580;2023-03-01T02:01:50;51.58;;;25.83;;
52029;SDS011;38043;53.224;6.580;2023-03-01T02:04:17;55.83;;;25.02;;
52029;SDS011;38043;53.224;6.580;2023-03-01T02:06:51;52.47;;;25.20;;
52029;SDS011;38043;53.224;6.580;2023-03-01T02:09:23;52.95;;;24.65;;
52029;SDS011;38043;53.224;6.580;2023-03-01T02:11:50;46.45;;;23.60;;
52029;SDS011;38043;53.224;6.580;2023-03-01T02:14:16;52.57;;;25.23;;
52029;SDS011;38043;53.224;6.580;2023-03-01T02:16:42;53.42;;;25.60;;
52029;SDS011;38043;53.224;6.580;2023-03-01T02:19:08;52.03;;;25.27;;
52029;SDS011;38043;53.224;6.580;2023-03-01T02:22:03;47.10;;;24.80;;
52029;SDS011;38043;53.224;6.580;2023-03-01T02:24:57;44.70;;;22.05;;
52029;SDS011;38043;53.224;6.580;2023-03-01T02:30:30;48.50;;;24.35;;
52029;SDS011;38043;53.224;6.580;2023-03-01T02:32:57;46.53;;;23.98;;
52029;SDS011;38043;53.224;6.580;2023-03-01T02:35:29;48.65;;;25.30;;
52029;SDS011;38043;53.224;6.580;2023-03-01T02:38:03;52.70;;;23.73;;
52029;SDS011;38043;53.224;6.580;2023-03-01T02:40:33;48.00;;;23.45;;
52029;SDS011;38043;53.224;6.580;2023-03-01T02:43:01;44.25;;;23.08;;
52029;SDS011;38043;53.224;6.580;2023-03-01T02:45:29;46.03;;;22.60;;
52029;SDS011;38043;53.224;6.580;2023-03-01T02:47:55;48.17;;;22.38;;
52029;SDS011;38043;53.224;6.580;2023-03-01T02:50:32;46.22;;;20.67;;
52029;SDS011;38043;53.224;6.580;2023-03-01T02:53:16;46.97;;;22.15;;
52029;SDS011;38043;53.224;6.580;2023-03-01T02:55:52;48.03;;;22.30;;
52029;SDS011;38043;53.224;6.580;2023-03-01T02:58:18;44.05;;;21.00;;
52029;SDS011;38043;53.224;6.580;2023-03-01T03:00:44;41.20;;;20.10;;
52029;SDS011;38043;53.224;6.580;2023-03-01T03:03:15;43.05;;;21.00;;
52029;SDS011;38043;53.224;6.580;2023-03-01T03:05:44;43.92;;;20.45;;
52029;SDS011;38043;53.224;6.580;2023-03-01T03:08:10;38.88;;;19.17;;
52029;SDS011;38043;53.224;6.580;2023-03-01T03:10:37;44.42;;;20.38;;
52029;SDS011;38043;53.224;6.580;2023-03-01T03:13:12;36.20;;;18.77;;
52029;SDS011;38043;53.224;6.580;2023-03-01T03:15:39;42.63;;;21.77;;
52029;SDS011;38043;53.224;6.580;2023-03-01T03:18:10;40.05;;;19.75;;
52029;SDS011;38043;53.224;6.580;2023-03-01T03:20:38;39.30;;;20.02;;
52029;SDS011;38043;53.224;6.580;2023-03-01T03:23:05;35.55;;;17.50;;
52029;SDS011;38043;53.224;6.580;2023-03-01T03:25:31;40.20;;;19.75;;
52029;SDS011;38043;53.224;6.580;2023-03-01T03:27:57;39.67;;;19.40;;
52029;SDS011;38043;53.224;6.580;2023-03-01T03:30:24;40.10;;;18.00;;
52029;SDS011;38043;53.224;6.580;2023-03-01T03:32:51;35.28;;;19.35;;
52029;SDS011;38043;53.224;6.580;2023-03-01T03:35:21;44.67;;;21.33;;
52029;SDS011;38043;53.224;6.580;2023-03-01T03:37:51;42.83;;;22.55;;
52029;SDS011;38043;53.224;6.580;2023-03-01T03:40:37;42.33;;;20.98;;
52029;SDS011;38043;53.224;6.580;2023-03-01T03:43:05;41.78;;;21.60;;
52029;SDS011;38043;53.224;6.580;2023-03-01T03:45:32;44.42;;;21.23;;
52029;SDS011;38043;53.224;6.580;2023-03-01T03:48:01;41.00;;;20.42;;
52029;SDS011;38043;53.224;6.580;2023-03-01T03:50:29;37.97;;;20.90;;
52029;SDS011;38043;53.224;6.580;2023-03-01T03:52:54;39.30;;;20.88;;
52029;SDS011;38043;53.224;6.580;2023-03-01T03:55:20;41.83;;;20.50;;
52029;SDS011;38043;53.224;6.580;2023-03-01T03:57:46;40.97;;;20.27;;
52029;SDS011;38043;53.224;6.580;2023-03-01T04:00:16;37.90;;;19.63;;
52029;SDS011;38043;53.224;6.580;2023-03-01T04:02:43;40.47;;;20.90;;
52029;SDS011;38043;53.224;6.580;2023-03-01T04:05:10;42.10;;;21.92;;
52029;SDS011;38043;53.224;6.580;2023-03-01T04:07:37;46.08;;;23.50;;
52029;SDS011;38043;53.224;6.580;2023-03-01T04:10:04;41.35;;;21.75;;
52029;SDS011;38043;53.224;6.580;2023-03-01T04:12:32;48.22;;;22.23;;
52029;SDS011;38043;53.224;6.580;2023-03-01T04:15:04;47.70;;;21.42;;
52029;SDS011;38043;53.224;6.580;2023-03-01T04:17:41;37.78;;;18.33;;
52029;SDS011;38043;53.224;6.580;2023-03-01T04:20:11;34.88;;;19.05;;
52029;SDS011;38043;53.224;6.580;2023-03-01T04:22:39;36.20;;;18.25;;
52029;SDS011;38043;53.224;6.580;2023-03-01T04:25:05;33.97;;;17.23;;
52029;SDS011;38043;53.224;6.580;2023-03-01T04:27:33;29.65;;;15.18;;
52029;SDS011;38043;53.224;6.580;2023-03-01T04:29:59;25.50;;;13.38;;
52029;SDS011;38043;53.224;6.580;2023-03-01T04:32:25;19.67;;;11.32;;
52029;SDS011;38043;53.224;6.580;2023-03-01T04:34:50;18.10;;;10.63;;
52029;SDS011;38043;53.224;6.580;2023-03-01T04:37:16;18.25;;;10.57;;
52029;SDS011;38043;53.224;6.580;2023-03-01T04:39:42;17.02;;;10.10;;
52029;SDS011;38043;53.224;6.580;2023-03-01T04:42:19;16.63;;;10.13;;
52029;SDS011;38043;53.224;6.580;2023-03-01T04:44:45;15.75;;;9.57;;
52029;SDS011;38043;53.224;6.580;2023-03-01T04:47:11;13.98;;;8.63;;
52029;SDS011;38043;53.224;6.580;2023-03-01T04:49:37;12.65;;;8.25;;
52029;SDS011;38043;53.224;6.580;2023-03-01T04:52:03;12.85;;;9.05;;
52029;SDS011;38043;53.224;6.580;2023-03-01T04:54:30;11.32;;;7.93;;
52029;SDS011;38043;53.224;6.580;2023-03-01T04:56:57;12.65;;;8.10;;
52029;SDS011;38043;53.224;6.580;2023-03-01T04:59:23;14.32;;;8.30;;
52029;SDS011;38043;53.224;6.580;2023-03-01T05:01:50;12.60;;;8.82;;
52029;SDS011;38043;53.224;6.580;2023-03-01T05:04:16;12.27;;;8.57;;
52029;SDS011;38043;53.224;6.580;2023-03-01T05:06:42;15.35;;;9.45;;
52029;SDS011;38043;53.224;6.580;2023-03-01T05:09:08;12.98;;;8.70;;
52029;SDS011;38043;53.224;6.580;2023-03-01T05:11:33;14.05;;;8.88;;
52029;SDS011;38043;53.224;6.580;2023-03-01T05:14:07;15.57;;;10.10;;
52029;SDS011;38043;53.224;6.580;2023-03-01T05:16:34;15.20;;;9.60;;
52029;SDS011;38043;53.224;6.580;2023-03-01T05:19:01;14.75;;;9.43;;
52029;SDS011;38043;53.224;6.580;2023-03-01T05:21:36;14.52;;;9.90;;
52029;SDS011;38043;53.224;6.580;2023-03-01T05:24:23;18.85;;;11.60;;
52029;SDS011;38043;53.224;6.580;2023-03-01T05:26:49;16.65;;;9.80;;
52029;SDS011;38043;53.224;6.580;2023-03-01T05:29:17;14.60;;;9.95;;
52029;SDS011;38043;53.224;6.580;2023-03-01T05:31:50;19.17;;;10.73;;
52029;SDS011;38043;53.224;6.580;2023-03-01T05:34:23;16.98;;;10.18;;
52029;SDS011;38043;53.224;6.580;2023-03-01T05:37:00;17.15;;;10.75;;
52029;SDS011;38043;53.224;6.580;2023-03-01T05:39:27;16.80;;;10.65;;
52029;SDS011;38043;53.224;6.580;2023-03-01T05:41:58;16.10;;;10.85;;
52029;SDS011;38043;53.224;6.580;2023-03-01T05:44:25;19.15;;;10.75;;
52029;SDS011;38043;53.224;6.580;2023-03-01T05:46:52;18.45;;;11.82;;
52029;SDS011;38043;53.224;6.580;2023-03-01T05:49:18;17.58;;;11.85;;
52029;SDS011;38043;53.224;6.580;2023-03-01T05:51:47;18.90;;;12.40;;
52029;SDS011;38043;53.224;6.580;2023-03-01T05:54:14;17.88;;;11.75;;
52029;SDS011;38043;53.224;6.580;2023-03-01T05:56:40;18.13;;;11.80;;
52029;SDS011;38043;53.224;6.580;2023-03-01T05:59:05;20.23;;;11.95;;
52029;SDS011;38043;53.224;6.580;2023-03-01T06:01:31;21.40;;;12.45;;
52029;SDS011;38043;53.224;6.580;2023-03-01T06:03:57;24.45;;;12.38;;
52029;SDS011;38043;53.224;6.580;2023-03-01T06:06:23;19.95;;;11.75;;
52029;SDS011;38043;53.224;6.580;2023-03-01T06:08:49;20.23;;;13.07;;
52029;SDS011;38043;53.224;6.580;2023-03-01T06:11:15;21.88;;;13.85;;
52029;SDS011;38043;53.224;6.580;2023-03-01T06:13:41;23.50;;;14.02;;
52029;SDS011;38043;53.224;6.580;2023-03-01T06:16:08;20.38;;;12.20;;
52029;SDS011;38043;53.224;6.580;2023-03-01T06:18:34;19.38;;;12.75;;
52029;SDS011;38043;53.224;6.580;2023-03-01T06:21:00;23.17;;;13.98;;
52029;SDS011;38043;53.224;6.580;2023-03-01T06:23:26;22.45;;;13.05;;
52029;SDS011;38043;53.224;6.580;2023-03-01T06:25:52;21.83;;;13.00;;
52029;SDS011;38043;53.224;6.580;2023-03-01T06:28:17;20.95;;;12.80;;
52029;SDS011;38043;53.224;6.580;2023-03-01T06:30:43;20.48;;;12.50;;
52029;SDS011;38043;53.224;6.580;2023-03-01T06:33:09;19.17;;;11.93;;
52029;SDS011;38043;53.224;6.580;2023-03-01T06:35:35;21.40;;;12.77;;
52029;SDS011;38043;53.224;6.580;2023-03-01T06:38:01;20.88;;;12.98;;
52029;SDS011;38043;53.224;6.580;2023-03-01T06:40:28;20.75;;;12.40;;
52029;SDS011;38043;53.224;6.580;2023-03-01T06:42:56;22.15;;;13.43;;
52029;SDS011;38043;53.224;6.580;2023-03-01T06:45:23;19.40;;;12.07;;
52029;SDS011;38043;53.224;6.580;2023-03-01T06:47:49;21.88;;;12.70;;
52029;SDS011;38043;53.224;6.580;2023-03-01T06:50:15;25.05;;;14.10;;
52029;SDS011;38043;53.224;6.580;2023-03-01T06:52:42;22.75;;;13.73;;
52029;SDS011;38043;53.224;6.580;2023-03-01T06:55:09;25.17;;;14.48;;
52029;SDS011;38043;53.224;6.580;2023-03-01T06:57:37;24.17;;;14.35;;
52029;SDS011;38043;53.224;6.580;2023-03-01T07:00:03;30.23;;;16.08;;
52029;SDS011;38043;53.224;6.580;2023-03-01T07:02:29;24.80;;;13.77;;
52029;SDS011;38043;53.224;6.580;2023-03-01T07:04:55;27.58;;;15.68;;
52029;SDS011;38043;53.224;6.580;2023-03-01T07:07:20;27.73;;;15.60;;
52029;SDS011;38043;53.224;6.580;2023-03-01T07:09:46;25.70;;;15.40;;
52029;SDS011;38043;53.224;6.580;2023-03-01T07:12:13;26.20;;;14.60;;
52029;SDS011;38043;53.224;6.580;2023-03-01T07:14:39;26.00;;;15.45;;
52029;SDS011;38043;53.224;6.580;2023-03-01T07:17:04;26.98;;;16.80;;
52029;SDS011;38043;53.224;6.580;2023-03-01T07:19:30;31.42;;;17.85;;
52029;SDS011;38043;53.224;6.580;2023-03-01T07:21:56;26.80;;;16.20;;
52029;SDS011;38043;53.224;6.580;2023-03-01T07:24:21;32.20;;;17.27;;
52029;SDS011;38043;53.224;6.580;2023-03-01T07:26:50;29.48;;;16.63;;
52029;SDS011;38043;53.224;6.580;2023-03-01T07:29:16;32.08;;;18.20;;
52029;SDS011;38043;53.224;6.580;2023-03-01T07:31:43;30.63;;;16.75;;
52029;SDS011;38043;53.224;6.580;2023-03-01T07:34:09;29.17;;;17.38;;
52029;SDS011;38043;53.224;6.580;2023-03-01T07:36:35;36.55;;;19.63;;
52029;SDS011;38043;53.224;6.580;2023-03-01T07:39:01;35.10;;;19.33;;
52029;SDS011;38043;53.224;6.580;2023-03-01T07:41:28;36.35;;;19.20;;
52029;SDS011;38043;53.224;6.580;2023-03-01T07:43:54;35.13;;;20.58;;
52029;SDS011;38043;53.224;6.580;2023-03-01T07:46:20;37.13;;;18.65;;
52029;SDS011;38043;53.224;6.580;2023-03-01T07:48:46;41.35;;;21.38;;
52029;SDS011;38043;53.224;6.580;2023-03-01T07:51:12;35.30;;;19.92;;
52029;SDS011;38043;53.224;6.580;2023-03-01T07:53:38;37.10;;;20.65;;
52029;SDS011;38043;53.224;6.580;2023-03-01T07:56:07;38.00;;;21.63;;
52029;SDS011;38043;53.224;6.580;2023-03-01T07:58:36;38.53;;;22.63;;
52029;SDS011;38043;53.224;6.580;2023-03-01T08:01:03;44.60;;;23.60;;
52029;SDS011;38043;53.224;6.580;2023-03-01T08:03:30;45.05;;;24.85;;
52029;SDS011;38043;53.224;6.580;2023-03-01T08:05:58;36.75;;;22.48;;
52029;SDS011;38043;53.224;6.580;2023-03-01T08:08:24;39.85;;;23.25;;
52029;SDS011;38043;53.224;6.580;2023-03-01T08:10:50;40.33;;;23.45;;
52029;SDS011;38043;53.224;6.580;2023-03-01T08:13:16;37.95;;;22.45;;
52029;SDS011;38043;53.224;6.580;2023-03-01T08:15:47;43.50;;;23.33;;
52029;SDS011;38043;53.224;6.580;2023-03-01T08:18:16;40.15;;;23.52;;
52029;SDS011;38043;53.224;6.580;2023-03-01T08:20:43;49.58;;;26.67;;
52029;SDS011;38043;53.224;6.580;2023-03-01T08:23:09;49.33;;;27.88;;
52029;SDS011;38043;53.224;6.580;2023-03-01T08:25:35;47.25;;;25.20;;
52029;SDS011;38043;53.224;6.580;2023-03-01T08:28:01;48.03;;;25.55;;
52029;SDS011;38043;53.224;6.580;2023-03-01T08:30:27;48.05;;;27.88;;
52029;SDS011;38043;53.224;6.580;2023-03-01T08:32:52;50.67;;;27.52;;
52029;SDS011;38043;53.224;6.580;2023-03-01T08:35:18;49.83;;;27.08;;
52029;SDS011;38043;53.224;6.580;2023-03-01T08:37:44;48.00;;;28.08;;
52029;SDS011;38043;53.224;6.580;2023-03-01T08:40:10;48.38;;;27.23;;
52029;SDS011;38043;53.224;6.580;2023-03-01T08:42:38;50.88;;;28.00;;
52029;SDS011;38043;53.224;6.580;2023-03-01T08:45:04;44.10;;;27.15;;
52029;SDS011;38043;53.224;6.580;2023-03-01T08:47:30;54.75;;;30.15;;
52029;SDS011;38043;53.224;6.580;2023-03-01T08:49:58;47.53;;;28.83;;
52029;SDS011;38043;53.224;6.580;2023-03-01T08:52:24;48.17;;;27.30;;
52029;SDS011;38043;53.224;6.580;2023-03-01T08:54:50;47.20;;;29.10;;
52029;SDS011;38043;53.224;6.580;2023-03-01T08:57:16;44.65;;;26.35;;
52029;SDS011;38043;53.224;6.580;2023-03-01T08:59:42;48.78;;;27.65;;
52029;SDS011;38043;53.224;6.580;2023-03-01T09:02:12;51.35;;;28.65;;
52029;SDS011;38043;53.224;6.580;2023-03-01T09:04:40;44.95;;;27.30;;
52029;SDS011;38043;53.224;6.580;2023-03-01T09:07:06;42.20;;;26.42;;
52029;SDS011;38043;53.224;6.580;2023-03-01T09:09:32;45.13;;;26.02;;
52029;SDS011;38043;53.224;6.580;2023-03-01T09:11:57;44.42;;;26.88;;
52029;SDS011;38043;53.224;6.580;2023-03-01T09:14:23;48.47;;;26.88;;
52029;SDS011;38043;53.224;6.580;2023-03-01T09:16:49;43.83;;;26.45;;
52029;SDS011;38043;53.224;6.580;2023-03-01T09:19:15;39.45;;;25.88;;
52029;SDS011;38043;53.224;6.580;2023-03-01T09:21:40;47.63;;;25.77;;
52029;SDS011;38043;53.224;6.580;2023-03-01T09:24:07;41.40;;;24.95;;
52029;SDS011;38043;53.224;6.580;2023-03-01T09:26:38;40.63;;;25.38;;
52029;SDS011;38043;53.224;6.580;2023-03-01T09:29:04;42.15;;;24.33;;
52029;SDS011;38043;53.224;6.580;2023-03-01T09:31:29;38.33;;;23.83;;
52029;SDS011;38043;53.224;6.580;2023-03-01T09:33:55;44.58;;;27.60;;
52029;SDS011;38043;53.224;6.580;2023-03-01T09:36:22;45.97;;;26.65;;
52029;SDS011;38043;53.224;6.580;2023-03-01T09:38:50;37.85;;;22.27;;
52029;SDS011;38043;53.224;6.580;2023-03-01T09:43:50;29.95;;;19.75;;
52029;SDS011;38043;53.224;6.580;2023-03-01T09:46:23;30.98;;;20.17;;
52029;SDS011;38043;53.224;6.580;2023-03-01T09:48:51;28.40;;;17.67;;
52029;SDS011;38043;53.224;6.580;2023-03-01T09:51:32;35.75;;;19.40;;
52029;SDS011;38043;53.224;6.580;2023-03-01T09:54:03;30.70;;;18.95;;
52029;SDS011;38043;53.224;6.580;2023-03-01T09:56:32;27.75;;;17.13;;
52029;SDS011;38043;53.224;6.580;2023-03-01T10:04:24;26.50;;;17.67;;
52029;SDS011;38043;53.224;6.580;2023-03-01T10:09:35;23.98;;;16.70;;
52029;SDS011;38043;53.224;6.580;2023-03-01T10:12:12;22.88;;;16.05;;
52029;SDS011;38043;53.224;6.580;2023-03-01T10:17:51;24.58;;;16.55;;
52029;SDS011;38043;53.224;6.580;2023-03-01T10:20:10;25.23;;;17.45;;
52029;SDS011;38043;53.224;6.580;2023-03-01T10:22:47;22.80;;;16.45;;
52029;SDS011;38043;53.224;6.580;2023-03-01T10:31:03;22.02;;;14.77;;
52029;SDS011;38043;53.224;6.580;2023-03-01T10:33:34;21.27;;;14.70;;
52029;SDS011;38043;53.224;6.580;2023-03-01T10:36:04;22.08;;;13.88;;
52029;SDS011;38043;53.224;6.580;2023-03-01T10:38:31;22.20;;;15.13;;
52029;SDS011;38043;53.224;6.580;2023-03-01T10:41:17;20.67;;;15.40;;
52029;SDS011;38043;53.224;6.580;2023-03-01T10:43:47;22.13;;;15.63;;
52029;SDS011;38043;53.224;6.580;2023-03-01T10:46:22;19.17;;;14.77;;
52029;SDS011;38043;53.224;6.580;2023-03-01T10:51:48;20.58;;;15.93;;
52029;SDS011;38043;53.224;6.580;2023-03-01T10:54:17;18.88;;;13.68;;
52029;SDS011;38043;53.224;6.580;2023-03-01T10:56:59;19.63;;;13.93;;
52029;SDS011;38043;53.224;6.580;2023-03-01T10:59:27;21.98;;;13.30;;
52029;SDS011;38043;53.224;6.580;2023-03-01T11:02:20;21.63;;;14.98;;
52029;SDS011;38043;53.224;6.580;2023-03-01T11:04:59;20.42;;;15.00;;
52029;SDS011;38043;53.224;6.580;2023-03-01T11:07:28;19.42;;;14.77;;
52029;SDS011;38043;53.224;6.580;2023-03-01T11:09:54;17.85;;;14.25;;
52029;SDS011;38043;53.224;6.580;2023-03-01T11:12:20;21.50;;;14.32;;
52029;SDS011;38043;53.224;6.580;2023-03-01T11:14:53;19.88;;;14.02;;
52029;SDS011;38043;53.224;6.580;2023-03-01T11:20:29;17.50;;;13.82;;
52029;SDS011;38043;53.224;6.580;2023-03-01T11:23:01;16.60;;;12.95;;
52029;SDS011;38043;53.224;6.580;2023-03-01T11:25:33;18.48;;;14.60;;
52029;SDS011;38043;53.224;6.580;2023-03-01T11:28:02;18.55;;;13.60;;
52029;SDS011;38043;53.224;6.580;2023-03-01T11:38:42;14.95;;;11.75;;
52029;SDS011;38043;53.224;6.580;2023-03-01T11:41:15;14.00;;;11.13;;
52029;SDS011;38043;53.224;6.580;2023-03-01T11:43:52;15.48;;;11.00;;
52029;SDS011;38043;53.224;6.580;2023-03-01T11:57:25;17.63;;;10.82;;
52029;SDS011;38043;53.224;6.580;2023-03-01T12:00:11;15.10;;;11.10;;
52029;SDS011;38043;53.224;6.580;2023-03-01T12:05:46;16.88;;;11.30;;
52029;SDS011;38043;53.224;6.580;2023-03-01T12:25:16;16.65;;;11.65;;
52029;SDS011;38043;53.224;6.580;2023-03-01T12:33:29;14.13;;;9.65;;
52029;SDS011;38043;53.224;6.580;2023-03-01T12:41:48;16.23;;;9.93;;
52029;SDS011;38043;53.224;6.580;2023-03-01T12:44:41;17.88;;;11.73;;
52029;SDS011;38043;53.224;6.580;2023-03-01T12:50:00;18.08;;;12.85;;
52029;SDS011;38043;53.224;6.580;2023-03-01T12:52:44;18.92;;;13.00;;
52029;SDS011;38043;53.224;6.580;2023-03-01T12:55:39;23.92;;;14.63;;
52029;SDS011;38043;53.224;6.580;2023-03-01T13:03:56;12.95;;;8.95;;
52029;SDS011;38043;53.224;6.580;2023-03-01T13:06:40;13.70;;;9.98;;
52029;SDS011;38043;53.224;6.580;2023-03-01T13:17:47;16.75;;;10.25;;
52029;SDS011;38043;53.224;6.580;2023-03-01T13:20:18;16.50;;;10.48;;
52029;SDS011;38043;53.224;6.580;2023-03-01T13:22:45;16.90;;;11.32;;
52029;SDS011;38043;53.224;6.580;2023-03-01T13:27:40;15.75;;;11.35;;
52029;SDS011;38043;53.224;6.580;2023-03-01T13:30:53;18.80;;;12.60;;
52029;SDS011;38043;53.224;6.580;2023-03-01T13:35:56;17.88;;;12.27;;
52029;SDS011;38043;53.224;6.580;2023-03-01T13:42:25;17.73;;;11.25;;
52029;SDS011;38043;53.224;6.580;2023-03-01T13:46:45;17.13;;;10.73;;
52029;SDS011;38043;53.224;6.580;2023-03-01T13:49:16;18.45;;;11.45;;
52029;SDS011;38043;53.224;6.580;2023-03-01T13:51:47;17.67;;;11.38;;
52029;SDS011;38043;53.224;6.580;2023-03-01T13:54:15;16.02;;;10.70;;
52029;SDS011;38043;53.224;6.580;2023-03-01T13:56:47;17.85;;;10.43;;
52029;SDS011;38043;53.224;6.580;2023-03-01T14:01:40;16.25;;;10.35;;
52029;SDS011;38043;53.224;6.580;2023-03-01T14:09:43;15.55;;;11.05;;
52029;SDS011;38043;53.224;6.580;2023-03-01T14:18:15;18.17;;;11.70;;
52029;SDS011;38043;53.224;6.580;2023-03-01T14:21:08;16.10;;;11.48;;
52029;SDS011;38043;53.224;6.580;2023-03-01T14:23:34;17.60;;;12.07;;
52029;SDS011;38043;53.224;6.580;2023-03-01T14:26:01;20.00;;;13.23;;
52029;SDS011;38043;53.224;6.580;2023-03-01T14:28:28;20.65;;;12.27;;
52029;SDS011;38043;53.224;6.580;2023-03-01T14:30:56;20.05;;;11.63;;
52029;SDS011;38043;53.224;6.580;2023-03-01T14:36:02;18.33;;;12.27;;
52029;SDS011;38043;53.224;6.580;2023-03-01T14:38:36;19.97;;;12.93;;
52029;SDS011;38043;53.224;6.580;2023-03-01T14:41:18;18.55;;;12.13;;
52029;SDS011;38043;53.224;6.580;2023-03-01T14:43:57;18.52;;;12.70;;
52029;SDS011;38043;53.224;6.580;2023-03-01T14:46:32;17.88;;;12.52;;
52029;SDS011;38043;53.224;6.580;2023-03-01T14:51:37;20.25;;;12.90;;
52029;SDS011;38043;53.224;6.580;2023-03-01T14:54:18;19.30;;;13.48;;
52029;SDS011;38043;53.224;6.580;2023-03-01T14:56:46;17.17;;;11.95;;
52029;SDS011;38043;53.224;6.580;2023-03-01T14:59:12;16.00;;;11.35;;
52029;SDS011;38043;53.224;6.580;2023-03-01T15:01:39;19.40;;;12.48;;
52029;SDS011;38043;53.224;6.580;2023-03-01T15:04:06;20.45;;;12.38;;
52029;SDS011;38043;53.224;6.580;2023-03-01T15:06:36;18.20;;;12.70;;
52029;SDS011;38043;53.224;6.580;2023-03-01T15:09:02;18.50;;;12.10;;
52029;SDS011;38043;53.224;6.580;2023-03-01T15:11:29;20.75;;;13.82;;
52029;SDS011;38043;53.224;6.580;2023-03-01T15:13:56;18.48;;;11.73;;
52029;SDS011;38043;53.224;6.580;2023-03-01T15:16:23;20.35;;;12.00;;
52029;SDS011;38043;53.224;6.580;2023-03-01T15:18:58;17.65;;;11.85;;
52029;SDS011;38043;53.224;6.580;2023-03-01T15:21:33;18.05;;;11.82;;
52029;SDS011;38043;53.224;6.580;2023-03-01T15:26:44;17.13;;;10.95;;
52029;SDS011;38043;53.224;6.580;2023-03-01T15:29:32;18.33;;;11.85;;
52029;SDS011;38043;53.224;6.580;2023-03-01T15:32:20;19.02;;;11.95;;
52029;SDS011;38043;53.224;6.580;2023-03-01T15:34:56;17.15;;;12.25;;
52029;SDS011;38043;53.224;6.580;2023-03-01T15:37:37;16.92;;;13.15;;
52029;SDS011;38043;53.224;6.580;2023-03-01T15:43:04;17.38;;;11.57;;
52029;SDS011;38043;53.224;6.580;2023-03-01T15:45:32;25.05;;;13.07;;
52029;SDS011;38043;53.224;6.580;2023-03-01T15:48:04;18.52;;;12.85;;
52029;SDS011;38043;53.224;6.580;2023-03-01T15:50:42;18.88;;;12.73;;
52029;SDS011;38043;53.224;6.580;2023-03-01T15:53:12;23.48;;;13.35;;
52029;SDS011;38043;53.224;6.580;2023-03-01T15:55:39;21.58;;;13.15;;
52029;SDS011;38043;53.224;6.580;2023-03-01T15:58:08;19.65;;;12.02;;
52029;SDS011;38043;53.224;6.580;2023-03-01T16:00:37;20.23;;;12.73;;
52029;SDS011;38043;53.224;6.580;2023-03-01T16:03:04;20.38;;;12.35;;
52029;SDS011;38043;53.224;6.580;2023-03-01T16:05:31;19.38;;;12.20;;
52029;SDS011;38043;53.224;6.580;2023-03-01T16:07:59;20.40;;;13.68;;
52029;SDS011;38043;53.224;6.580;2023-03-01T16:10:25;18.30;;;12.88;;
52029;SDS011;38043;53.224;6.580;2023-03-01T16:12:51;20.38;;;12.88;;
52029;SDS011;38043;53.224;6.580;2023-03-01T16:15:21;18.52;;;12.95;;
52029;SDS011;38043;53.224;6.580;2023-03-01T16:17:47;19.10;;;12.82;;
52029;SDS011;38043;53.224;6.580;2023-03-01T16:20:13;21.90;;;14.02;;
52029;SDS011;38043;53.224;6.580;2023-03-01T16:22:42;20.63;;;14.05;;
52029;SDS011;38043;53.224;6.580;2023-03-01T16:25:13;20.25;;;13.68;;
52029;SDS011;38043;53.224;6.580;2023-03-01T16:27:44;20.08;;;14.05;;
52029;SDS011;38043;53.224;6.580;2023-03-01T16:30:11;20.77;;;13.05;;
52029;SDS011;38043;53.224;6.580;2023-03-01T16:32:38;19.52;;;13.35;;
52029;SDS011;38043;53.224;6.580;2023-03-01T16:35:05;19.98;;;13.27;;
52029;SDS011;38043;53.224;6.580;2023-03-01T16:37:32;21.75;;;13.20;;
52029;SDS011;38043;53.224;6.580;2023-03-01T16:39:58;18.55;;;13.93;;
52029;SDS011;38043;53.224;6.580;2023-03-01T16:42:24;22.17;;;14.38;;
52029;SDS011;38043;53.224;6.580;2023-03-01T16:44:56;21.50;;;14.00;;
52029;SDS011;38043;53.224;6.580;2023-03-01T16:47:21;22.42;;;13.50;;
52029;SDS011;38043;53.224;6.580;2023-03-01T16:49:47;22.60;;;13.93;;